Terminal Aerodrome Forecast
Issued by NWS

Home | Current Version | Previous Version | Text Only | Print | Product List | Glossary On
Versions: 1 2 3 4 5 6 7 8 9 10 11 12 13
000
FTUS45 KVEF 050648 AAA
TAFHND
TAF AMD
KHND 050648Z 0507/0606 19012KT P6SM VCSH SCT100 BKN140
      TEMPO 0507/0508 -SHRA SCT050 BKN080
     FM051400 19012KT P6SM SCT120 SCT250
     FM051900 20018G25KT P6SM SCT250=

USA.gov is the U.S. government's official web portal to all federal, state and local government web resources and services.